createdAt,value
2018-12-16T00:00:34.972Z,5.26
2018-12-16T00:03:02.554Z,5.33
2018-12-16T00:05:30.136Z,5.34
2018-12-16T00:07:57.773Z,5.40
2018-12-16T00:10:25.356Z,5.57
2018-12-16T00:12:52.938Z,5.58
2018-12-16T00:15:20.655Z,5.60
2018-12-16T00:17:48.225Z,5.54
2018-12-16T00:20:15.808Z,5.71
2018-12-16T00:22:43.452Z,5.86
2018-12-16T00:25:11.081Z,5.83
2018-12-16T00:27:38.653Z,5.78
2018-12-16T00:30:06.464Z,5.75
2018-12-16T00:32:34.134Z,5.47
2018-12-16T00:35:01.718Z,5.33
2018-12-16T00:37:29.436Z,5.38
2018-12-16T00:39:57.020Z,5.20
2018-12-16T00:42:24.609Z,5.12
2018-12-16T00:44:52.261Z,5.02
2018-12-16T00:47:19.845Z,4.95
2018-12-16T00:49:47.410Z,5.06
2018-12-16T00:52:15.841Z,5.15
2018-12-16T00:54:43.456Z,5.26
2018-12-16T00:57:11.032Z,5.44
2018-12-16T00:59:38.777Z,5.27
2018-12-16T01:02:06.489Z,5.43
2018-12-16T01:04:34.088Z,5.29
2018-12-16T01:07:01.732Z,5.39
2018-12-16T01:09:29.368Z,5.38
2018-12-16T01:11:56.965Z,5.19
2018-12-16T01:14:24.846Z,5.13
2018-12-16T01:16:52.415Z,5.45
2018-12-16T01:19:20.017Z,5.47
2018-12-16T01:21:47.933Z,5.55
2018-12-16T01:24:15.556Z,5.41
2018-12-16T01:26:43.124Z,5.39
2018-12-16T01:29:11.025Z,5.40
2018-12-16T01:31:38.593Z,5.35
2018-12-16T01:34:06.186Z,5.38
2018-12-16T01:36:33.804Z,5.42
2018-12-16T01:39:01.369Z,5.43
2018-12-16T01:41:28.941Z,5.39
2018-12-16T01:43:56.681Z,5.45
2018-12-16T01:46:24.249Z,5.49
2018-12-16T01:48:51.833Z,5.45
2018-12-16T01:51:19.468Z,5.43
2018-12-16T01:53:47.030Z,5.38
2018-12-16T01:56:14.593Z,5.33
2018-12-16T01:58:42.447Z,5.41
2018-12-16T02:01:10.009Z,5.49
2018-12-16T02:03:37.574Z,5.50
2018-12-16T02:06:05.337Z,5.51
2018-12-16T02:08:32.918Z,5.61
2018-12-16T02:11:00.493Z,5.57
2018-12-16T02:13:28.322Z,5.56
2018-12-16T02:15:58.033Z,5.64
2018-12-16T02:18:25.606Z,5.67
2018-12-16T02:20:53.352Z,5.69
2018-12-16T02:23:20.905Z,5.67
2018-12-16T02:25:48.480Z,5.58
2018-12-16T02:28:16.339Z,5.71
2018-12-16T02:30:43.912Z,5.69
2018-12-16T02:33:11.489Z,5.78
2018-12-16T02:35:39.217Z,5.79
2018-12-16T02:38:06.802Z,5.94
2018-12-16T02:40:34.372Z,5.80
2018-12-16T02:43:02.022Z,5.80
2018-12-16T02:45:29.605Z,5.78
2018-12-16T02:47:57.227Z,5.73
2018-12-16T02:50:25.092Z,5.96
2018-12-16T02:52:52.818Z,5.87
2018-12-16T02:55:20.421Z,5.79
2018-12-16T02:57:48.229Z,5.58
2018-12-16T03:00:15.825Z,5.55
2018-12-16T03:02:43.397Z,5.42
2018-12-16T03:05:11.024Z,5.47
2018-12-16T03:07:38.589Z,5.43
2018-12-16T03:10:06.250Z,5.38
2018-12-16T03:12:34.155Z,5.47
2018-12-16T03:15:01.738Z,5.53
2018-12-16T03:17:29.329Z,5.53
2018-12-16T03:19:56.980Z,5.56
2018-12-16T03:22:24.566Z,5.40
2018-12-16T03:24:52.143Z,5.42
2018-12-16T03:27:19.914Z,5.45
2018-12-16T03:29:47.485Z,5.37
2018-12-16T03:32:15.127Z,5.48
2018-12-16T03:34:42.733Z,5.55
2018-12-16T03:37:10.293Z,5.49
2018-12-16T03:39:37.870Z,5.43
2018-12-16T03:42:05.532Z,5.36
2018-12-16T03:44:33.124Z,5.34
2018-12-16T03:47:00.692Z,5.34
2018-12-16T03:49:28.318Z,5.50
2018-12-16T03:51:55.883Z,5.49
2018-12-16T03:54:23.453Z,5.49
2018-12-16T03:56:51.237Z,5.67
2018-12-16T03:59:18.908Z,5.68
2018-12-16T04:02:01.311Z,5.62
2018-12-16T04:04:28.900Z,5.60
2018-12-16T04:06:56.482Z,5.42
2018-12-16T04:09:24.208Z,5.47
2018-12-16T04:11:51.788Z,5.48
2018-12-16T04:14:19.367Z,5.71
2018-12-16T04:16:46.977Z,5.82
2018-12-16T04:19:14.537Z,5.78
2018-12-16T04:21:42.109Z,5.67
2018-12-16T04:24:09.863Z,5.55
2018-12-16T04:26:37.425Z,5.80
2018-12-16T04:29:05.037Z,6.02
2018-12-16T04:31:32.846Z,5.95
2018-12-16T04:34:00.404Z,6.08
2018-12-16T04:36:27.967Z,6.02
2018-12-16T04:38:55.587Z,5.94
2018-12-16T04:41:23.156Z,5.88
2018-12-16T04:43:50.747Z,6.07
2018-12-16T04:46:18.611Z,6.13
2018-12-16T04:48:46.221Z,6.15
2018-12-16T04:51:13.801Z,6.09
2018-12-16T04:53:41.696Z,6.06
2018-12-16T04:56:09.272Z,5.98
2018-12-16T04:58:36.918Z,6.16
2018-12-16T05:01:04.841Z,6.31
2018-12-16T05:03:32.428Z,6.39
2018-12-16T05:06:00.211Z,6.19
2018-12-16T05:08:27.972Z,6.08
2018-12-16T05:10:55.541Z,6.10
2018-12-16T05:13:23.116Z,6.00
2018-12-16T05:15:51.165Z,5.99
2018-12-16T05:18:18.728Z,5.96
2018-12-16T05:20:46.310Z,6.12
2018-12-16T05:23:15.066Z,6.10
2018-12-16T05:25:42.633Z,5.98
2018-12-16T05:28:10.197Z,5.97
2018-12-16T05:30:37.962Z,6.08
2018-12-16T05:33:05.594Z,5.93
2018-12-16T05:35:33.182Z,5.77
2018-12-16T05:38:00.869Z,5.78
2018-12-16T05:40:28.437Z,5.89
2018-12-16T05:42:56.000Z,6.07
2018-12-16T05:45:23.832Z,5.98
2018-12-16T05:47:51.421Z,5.95
2018-12-16T05:50:19.057Z,5.90
2018-12-16T05:52:46.804Z,5.79
2018-12-16T05:55:14.366Z,5.85
2018-12-16T05:57:41.937Z,5.90
2018-12-16T06:00:09.790Z,5.85
2018-12-16T06:02:37.370Z,5.81
2018-12-16T06:05:05.015Z,5.60
2018-12-16T06:07:32.885Z,5.74
2018-12-16T06:10:00.453Z,5.80
2018-12-16T06:12:28.034Z,5.69
2018-12-16T06:14:55.684Z,5.77
2018-12-16T06:17:23.269Z,5.85
2018-12-16T06:19:50.857Z,5.71
2018-12-16T06:22:18.505Z,5.70
2018-12-16T06:24:46.104Z,5.87
2018-12-16T06:27:13.717Z,5.83
2018-12-16T06:29:41.501Z,5.80
2018-12-16T06:32:09.286Z,5.91
2018-12-16T06:34:36.873Z,5.95
2018-12-16T06:37:04.517Z,6.03
2018-12-16T06:39:32.094Z,6.01
2018-12-16T06:41:59.666Z,5.80
2018-12-16T06:44:27.455Z,5.86
2018-12-16T06:46:55.034Z,5.74
2018-12-16T06:49:22.609Z,5.80
2018-12-16T06:51:50.440Z,5.89
2018-12-16T06:54:18.013Z,5.87
2018-12-16T06:56:45.617Z,5.99
2018-12-16T06:59:13.245Z,6.10
2018-12-16T07:01:40.813Z,6.09
2018-12-16T07:04:08.395Z,6.23
2018-12-16T07:06:36.105Z,6.43
2018-12-16T07:09:03.820Z,6.53
2018-12-16T07:11:31.388Z,6.47
2018-12-16T07:13:59.988Z,6.42
2018-12-16T07:16:27.564Z,6.57
2018-12-16T07:18:55.181Z,6.57
2018-12-16T07:21:22.964Z,6.67
2018-12-16T07:23:50.524Z,6.68
2018-12-16T07:26:18.113Z,6.43
2018-12-16T07:28:45.800Z,6.52
2018-12-16T07:31:13.374Z,6.54
2018-12-16T07:33:40.966Z,6.54
2018-12-16T07:36:08.817Z,6.37
2018-12-16T07:38:36.397Z,6.66
2018-12-16T07:41:04.038Z,6.88
2018-12-16T07:43:31.917Z,6.95
2018-12-16T07:45:59.553Z,6.87
2018-12-16T07:48:27.189Z,7.00
2018-12-16T07:50:55.084Z,7.02
2018-12-16T07:53:22.666Z,6.97
2018-12-16T07:55:50.417Z,6.93
2018-12-16T07:58:18.259Z,6.79
2018-12-16T08:00:45.853Z,6.87
2018-12-16T08:03:13.416Z,6.75
2018-12-16T08:05:41.352Z,6.89
2018-12-16T08:08:08.933Z,6.97
2018-12-16T08:10:36.529Z,6.83
2018-12-16T08:13:04.169Z,6.98
2018-12-16T08:15:31.757Z,7.05
2018-12-16T08:17:59.345Z,7.15
2018-12-16T08:20:26.948Z,7.28
2018-12-16T08:22:54.540Z,7.27
2018-12-16T08:25:22.114Z,7.17
2018-12-16T08:27:49.737Z,7.22
2018-12-16T08:30:17.318Z,7.37
2018-12-16T08:32:44.920Z,7.70
2018-12-16T08:35:12.679Z,7.64
2018-12-16T08:37:40.253Z,7.65
2018-12-16T08:40:07.862Z,7.58
2018-12-16T08:42:35.468Z,7.64
2018-12-16T08:45:04.476Z,7.45
2018-12-16T08:47:33.248Z,7.45
2018-12-16T08:49:58.709Z,7.54
2018-12-16T08:52:26.344Z,7.37
2018-12-16T08:54:53.907Z,7.21
2018-12-16T08:57:21.556Z,7.42
2018-12-16T08:59:49.121Z,7.57
2018-12-16T09:02:16.708Z,7.46
2018-12-16T09:04:47.446Z,7.37
2018-12-16T09:07:15.010Z,7.49
2018-12-16T09:09:42.654Z,7.31
2018-12-16T09:12:10.532Z,7.09
2018-12-16T09:14:38.123Z,7.22
2018-12-16T09:17:05.685Z,6.95
2018-12-16T09:19:33.514Z,6.97
2018-12-16T09:22:01.136Z,7.18
2018-12-16T09:24:28.721Z,7.20
2018-12-16T09:26:56.809Z,7.33
2018-12-16T09:29:24.377Z,7.48
2018-12-16T09:31:51.954Z,7.64
2018-12-16T09:34:19.583Z,7.91
2018-12-16T09:36:47.150Z,8.04
2018-12-16T09:39:15.481Z,8.03
2018-12-16T09:41:43.316Z,7.94
2018-12-16T09:44:10.880Z,8.10
2018-12-16T09:46:38.489Z,7.92
2018-12-16T09:49:06.144Z,7.85
2018-12-16T09:51:33.746Z,7.74
2018-12-16T09:54:01.334Z,7.50
2018-12-16T09:56:29.153Z,7.38
2018-12-16T09:58:56.737Z,7.41
2018-12-16T10:01:24.324Z,7.48
2018-12-16T10:03:52.141Z,7.53
2018-12-16T10:06:19.737Z,7.58
2018-12-16T10:08:47.326Z,7.76
2018-12-16T10:11:15.220Z,7.74
2018-12-16T10:13:42.798Z,7.60
2018-12-16T10:16:10.382Z,7.55
2018-12-16T10:18:38.082Z,7.42
2018-12-16T10:21:05.665Z,7.30
2018-12-16T10:23:33.253Z,7.37
2018-12-16T10:26:00.897Z,7.34
2018-12-16T10:28:28.469Z,7.34
2018-12-16T10:30:56.054Z,7.40
2018-12-16T10:33:23.843Z,7.57
2018-12-16T10:35:51.416Z,7.48
2018-12-16T10:38:18.990Z,7.70
2018-12-16T10:40:46.678Z,7.68
2018-12-16T10:43:14.262Z,7.57
2018-12-16T10:45:41.846Z,7.61
2018-12-16T10:48:09.510Z,7.65
2018-12-16T10:50:37.479Z,7.75
2018-12-16T10:53:05.056Z,7.73
2018-12-16T10:55:33.006Z,7.76
2018-12-16T10:58:00.585Z,7.59
2018-12-16T11:03:22.385Z,7.73
2018-12-16T11:05:50.145Z,7.80
2018-12-16T11:08:17.713Z,7.56
2018-12-16T11:10:45.394Z,7.52
2018-12-16T11:13:13.085Z,7.81
2018-12-16T11:15:40.658Z,7.68
2018-12-16T11:18:08.265Z,7.39
2018-12-16T11:20:36.119Z,7.41
2018-12-16T11:23:03.744Z,7.44
2018-12-16T11:25:31.325Z,7.29
2018-12-16T11:27:59.098Z,7.31
2018-12-16T11:30:26.701Z,7.20
2018-12-16T11:32:54.326Z,7.10
2018-12-16T11:35:22.280Z,7.11
2018-12-16T11:37:49.858Z,7.03
2018-12-16T11:40:17.434Z,6.93
2018-12-16T11:42:45.173Z,7.01
2018-12-16T11:45:12.826Z,7.14
2018-12-16T11:47:40.397Z,7.17
2018-12-16T11:50:08.126Z,7.16
2018-12-16T11:52:35.727Z,7.19
2018-12-16T11:55:04.221Z,7.10
2018-12-16T11:57:32.101Z,7.00
2018-12-16T11:59:59.680Z,6.86
2018-12-16T12:02:32.752Z,6.89
2018-12-16T12:04:55.249Z,6.86
2018-12-16T12:07:22.810Z,6.82
2018-12-16T12:09:50.388Z,6.89
2018-12-16T12:12:18.129Z,6.88
2018-12-16T12:14:45.710Z,6.83
2018-12-16T12:17:13.294Z,6.68
2018-12-16T12:19:41.221Z,6.69
2018-12-16T12:22:08.857Z,6.61
2018-12-16T12:24:36.441Z,6.77
2018-12-16T12:27:04.112Z,6.78
2018-12-16T12:29:31.675Z,6.71
2018-12-16T12:31:59.301Z,6.70
2018-12-16T12:34:27.553Z,6.78
2018-12-16T12:36:55.153Z,6.68
2018-12-16T12:39:22.753Z,6.65
2018-12-16T12:41:50.514Z,6.75
2018-12-16T12:44:18.153Z,6.75
2018-12-16T12:46:46.981Z,6.70
2018-12-16T12:49:14.631Z,6.78
2018-12-16T12:51:42.206Z,6.65
2018-12-16T12:54:09.789Z,6.75
2018-12-16T12:56:37.609Z,6.63
2018-12-16T12:59:05.173Z,6.74
2018-12-16T13:01:32.760Z,6.77
2018-12-16T13:04:00.405Z,6.71
2018-12-16T13:06:27.982Z,6.81
2018-12-16T13:08:55.566Z,6.98
2018-12-16T13:11:23.202Z,6.66
2018-12-16T13:13:50.811Z,6.73
2018-12-16T13:16:18.421Z,6.70
2018-12-16T13:18:46.229Z,6.57
2018-12-16T13:21:14.013Z,6.62
2018-12-16T13:23:41.602Z,6.63
2018-12-16T13:26:09.301Z,6.71
2018-12-16T13:28:36.983Z,6.71
2018-12-16T13:31:05.528Z,6.58
2018-12-16T13:33:33.657Z,6.27
2018-12-16T13:36:01.314Z,5.57
2018-12-16T13:38:28.910Z,5.23
2018-12-16T13:40:56.761Z,5.09
2018-12-16T13:43:25.344Z,4.93
2018-12-16T13:45:52.948Z,4.88
2018-12-16T13:48:20.882Z,4.74
2018-12-16T13:50:48.437Z,4.63
2018-12-16T13:53:16.927Z,4.56
2018-12-16T13:55:44.614Z,4.40
2018-12-16T13:58:12.204Z,4.26
2018-12-16T14:00:39.835Z,4.25
2018-12-16T14:03:07.469Z,4.15
2018-12-16T14:05:35.603Z,4.05
2018-12-16T14:08:03.199Z,3.95
2018-12-16T14:10:31.169Z,3.87
2018-12-16T14:12:58.749Z,3.81
2018-12-16T14:15:26.331Z,3.76
2018-12-16T14:17:54.875Z,3.67
2018-12-16T14:20:22.440Z,3.56
2018-12-16T14:22:49.999Z,3.56
2018-12-16T14:25:17.804Z,3.48
2018-12-16T14:27:45.365Z,3.50
2018-12-16T14:30:12.992Z,3.45
2018-12-16T14:32:40.776Z,3.33
2018-12-16T14:35:08.473Z,3.29
2018-12-16T14:37:36.037Z,3.22
2018-12-16T14:40:03.758Z,3.22
2018-12-16T14:42:31.320Z,3.15
2018-12-16T14:44:58.872Z,3.14
2018-12-16T14:47:26.777Z,3.09
2018-12-16T14:49:54.341Z,3.05
2018-12-16T14:52:21.913Z,2.97
2018-12-16T14:54:49.546Z,2.94
2018-12-16T14:57:17.153Z,2.90
2018-12-16T14:59:44.731Z,2.87
2018-12-16T15:02:12.577Z,2.82
2018-12-16T15:04:40.165Z,2.75
2018-12-16T15:07:07.792Z,2.73
2018-12-16T15:09:35.557Z,2.72
2018-12-16T15:12:03.133Z,2.74
2018-12-16T16:09:19.343Z,2.14
2018-12-16T16:11:46.928Z,2.14
2018-12-16T16:14:14.568Z,2.14
2018-12-16T16:16:42.335Z,2.17
2018-12-16T16:19:09.913Z,2.15
2018-12-16T16:21:37.503Z,2.16
2018-12-16T16:24:06.294Z,2.12
2018-12-16T16:26:33.877Z,2.17
2018-12-16T16:29:01.471Z,2.15
2018-12-16T16:31:29.116Z,2.13
2018-12-16T16:34:00.194Z,2.12
2018-12-16T16:36:27.753Z,2.10
2018-12-16T16:38:55.493Z,2.17
2018-12-16T16:41:23.063Z,2.10
2018-12-16T16:43:57.426Z,2.12
2018-12-16T16:46:25.126Z,2.09
2018-12-16T16:48:52.720Z,2.08
2018-12-16T16:51:20.746Z,2.08
2018-12-16T16:57:05.894Z,2.11
2018-12-16T16:59:33.483Z,2.12
2018-12-16T17:02:01.086Z,2.09
2018-12-16T17:04:28.725Z,2.11
2018-12-16T17:06:56.341Z,2.09
2018-12-16T17:09:23.914Z,2.10
2018-12-16T17:11:51.640Z,2.11
2018-12-16T17:14:19.239Z,2.11
2018-12-16T17:16:46.809Z,2.17
2018-12-16T17:19:14.498Z,2.17
2018-12-16T17:21:45.131Z,2.20
2018-12-16T17:24:12.720Z,2.21
2018-12-16T17:26:40.450Z,2.16
2018-12-16T17:29:08.032Z,2.25
2018-12-16T17:31:35.592Z,2.16
2018-12-16T17:34:03.840Z,2.20
2018-12-16T17:36:31.426Z,2.23
2018-12-16T17:38:59.001Z,2.19
2018-12-16T17:41:26.925Z,2.19
2018-12-16T17:43:54.533Z,2.27
2018-12-16T17:46:22.131Z,2.38
2018-12-16T17:48:49.772Z,2.43
2018-12-16T17:51:17.364Z,2.35
2018-12-16T17:53:44.943Z,2.26
2018-12-16T17:56:12.723Z,2.23
2018-12-16T17:58:40.381Z,2.22
2018-12-16T18:01:07.966Z,2.22
2018-12-16T18:03:35.830Z,2.26
2018-12-16T18:06:04.489Z,2.25
2018-12-16T18:08:31.045Z,2.18
2018-12-16T18:10:58.826Z,2.14
2018-12-16T18:13:26.403Z,2.25
2018-12-16T18:15:53.993Z,2.25
2018-12-16T18:18:21.617Z,2.19
2018-12-16T18:20:49.616Z,2.25
2018-12-16T18:23:17.214Z,2.32
2018-12-16T18:25:44.925Z,2.28
2018-12-16T18:28:12.501Z,2.25
2018-12-16T18:30:40.095Z,2.28
2018-12-16T18:33:07.834Z,2.26
2018-12-16T18:35:35.426Z,2.26
2018-12-16T18:38:03.096Z,2.22
2018-12-16T18:40:30.945Z,2.22
2018-12-16T18:42:58.538Z,2.20
2018-12-16T18:45:26.153Z,2.27
2018-12-16T18:47:53.992Z,2.22
2018-12-16T18:50:21.625Z,2.24
2018-12-16T18:52:49.225Z,2.27
2018-12-16T18:55:21.147Z,2.30
2018-12-16T18:57:48.741Z,2.35
2018-12-16T19:00:16.415Z,2.29
2018-12-16T19:02:44.163Z,2.23
2018-12-16T19:05:11.819Z,2.35
2018-12-16T19:07:39.424Z,2.25
2018-12-16T19:10:07.327Z,2.21
2018-12-16T19:12:34.923Z,2.24
2018-12-16T19:15:02.589Z,2.13
2018-12-16T19:17:30.460Z,2.12
2018-12-16T19:19:58.045Z,2.07
2018-12-16T19:22:25.633Z,1.96
2018-12-16T19:24:54.166Z,1.99
2018-12-16T19:27:21.773Z,1.98
2018-12-16T19:29:49.372Z,2.02
2018-12-16T19:32:17.117Z,2.04
2018-12-16T19:34:44.701Z,1.99
2018-12-16T19:37:12.279Z,1.94
2018-12-16T19:39:40.023Z,1.90
2018-12-16T19:42:07.598Z,1.89
2018-12-16T19:44:35.179Z,1.96
2018-12-16T19:47:02.979Z,1.92
2018-12-16T19:49:30.581Z,1.88
2018-12-16T19:51:58.169Z,1.89
2018-12-16T19:54:26.510Z,1.85
2018-12-16T19:56:55.194Z,1.91
2018-12-16T19:59:22.821Z,1.84
2018-12-16T20:01:50.592Z,1.78
2018-12-16T20:04:18.241Z,1.82
2018-12-16T20:06:45.917Z,1.88
2018-12-16T20:09:13.785Z,1.80
2018-12-16T20:11:42.496Z,1.81
2018-12-16T20:14:10.079Z,1.79
2018-12-16T20:16:37.880Z,1.85
2018-12-16T20:19:05.461Z,1.74
2018-12-16T20:21:33.137Z,1.78
2018-12-16T20:24:01.010Z,1.74
2018-12-16T20:26:28.572Z,1.68
2018-12-16T20:28:56.170Z,1.67
2018-12-16T20:31:23.905Z,1.65
2018-12-16T20:33:51.497Z,1.71
2018-12-16T20:36:19.095Z,1.64
2018-12-16T20:38:46.970Z,1.61
2018-12-16T20:41:14.550Z,1.57
2018-12-16T20:43:42.134Z,1.63
2018-12-16T20:46:09.867Z,1.64
2018-12-16T20:48:37.497Z,1.64
2018-12-16T20:51:05.074Z,1.60
2018-12-16T20:53:32.895Z,1.51
2018-12-16T20:56:00.479Z,1.51
2018-12-16T20:58:28.069Z,1.56
2018-12-16T21:00:55.836Z,1.55
2018-12-16T21:03:23.468Z,1.47
2018-12-16T21:05:51.055Z,1.47
2018-12-16T21:08:18.709Z,1.45
2018-12-16T21:10:46.311Z,1.52
2018-12-16T21:13:19.680Z,1.48
2018-12-16T21:15:52.677Z,1.60
2018-12-16T21:18:21.258Z,1.63
2018-12-16T21:20:48.888Z,1.42
2018-12-16T21:23:16.460Z,1.39
2018-12-16T21:25:44.110Z,1.41
2018-12-16T21:28:11.698Z,1.42
2018-12-16T21:30:39.305Z,1.48
2018-12-16T21:33:07.306Z,1.38
2018-12-16T21:35:34.902Z,1.42
2018-12-16T21:38:02.522Z,1.47
2018-12-16T21:40:30.411Z,1.46
2018-12-16T21:42:57.998Z,1.38
2018-12-16T21:45:25.591Z,1.37
2018-12-16T21:47:53.337Z,1.35
2018-12-16T21:50:20.929Z,1.34
2018-12-16T21:52:48.559Z,1.32
2018-12-16T21:55:16.301Z,1.42
2018-12-16T21:57:43.884Z,1.38
2018-12-16T22:00:11.603Z,1.38
2018-12-16T22:02:39.339Z,1.39
2018-12-16T22:05:07.017Z,1.51
2018-12-16T22:07:34.592Z,1.42
2018-12-16T22:10:02.567Z,1.44
2018-12-16T22:12:30.133Z,1.51
2018-12-16T22:14:57.717Z,1.46
2018-12-16T22:17:25.366Z,1.47
2018-12-16T22:19:52.932Z,1.37
2018-12-16T22:22:20.500Z,1.37
2018-12-16T22:24:48.137Z,1.33
2018-12-16T22:27:15.719Z,1.28
2018-12-16T22:29:43.285Z,1.32
2018-12-16T22:32:10.981Z,1.19
2018-12-16T22:34:49.795Z,1.17
2018-12-16T22:37:17.499Z,1.29
2018-12-16T22:39:45.096Z,1.32
2018-12-16T22:42:12.697Z,1.30
2018-12-16T22:44:40.518Z,1.30
2018-12-16T22:47:08.101Z,1.30
2018-12-16T22:49:35.678Z,1.25
2018-12-16T22:52:03.646Z,1.26
2018-12-16T22:54:31.204Z,1.30
2018-12-16T22:56:58.771Z,1.28
2018-12-16T22:59:26.627Z,1.35
2018-12-16T23:01:54.283Z,1.38
2018-12-16T23:04:21.916Z,1.36
2018-12-16T23:06:49.669Z,1.23
2018-12-16T23:09:17.255Z,1.26
2018-12-16T23:11:44.877Z,1.29
2018-12-16T23:14:12.583Z,1.22
2018-12-16T23:16:40.168Z,1.28
2018-12-16T23:19:07.741Z,1.33
2018-12-16T23:21:35.475Z,1.36
2018-12-16T23:24:03.049Z,1.38
2018-12-16T23:26:30.635Z,1.43
2018-12-16T23:28:58.370Z,1.35
2018-12-16T23:31:25.957Z,1.37
2018-12-16T23:33:53.526Z,1.39
2018-12-16T23:36:21.231Z,1.34
2018-12-16T23:38:48.802Z,1.35
2018-12-16T23:41:16.376Z,1.44
2018-12-16T23:43:44.102Z,1.49
2018-12-16T23:46:11.692Z,1.53
2018-12-16T23:48:39.277Z,1.48
2018-12-16T23:51:07.033Z,1.59
2018-12-16T23:53:34.606Z,1.42
2018-12-16T23:56:02.180Z,1.46
